sensor_id;sensor_type;location;lat;lon;timestamp;P1;durP1;ratioP1;P2;durP2;ratioP2
10991;SDS011;5549;47.028;15.514;2024-03-02T00:01:56;31.80;;;12.75;;
10991;SDS011;5549;47.028;15.514;2024-03-02T00:04:26;33.67;;;13.00;;
10991;SDS011;5549;47.028;15.514;2024-03-02T00:06:58;32.92;;;13.05;;
10991;SDS011;5549;47.028;15.514;2024-03-02T00:09:29;31.95;;;13.25;;
10991;SDS011;5549;47.028;15.514;2024-03-02T00:12:00;33.50;;;12.15;;
10991;SDS011;5549;47.028;15.514;2024-03-02T00:14:28;31.90;;;12.05;;
10991;SDS011;5549;47.028;15.514;2024-03-02T00:16:58;33.80;;;12.18;;
10991;SDS011;5549;47.028;15.514;2024-03-02T00:19:28;26.70;;;11.27;;
10991;SDS011;5549;47.028;15.514;2024-03-02T00:22:00;30.90;;;11.88;;
10991;SDS011;5549;47.028;15.514;2024-03-02T00:24:31;30.92;;;12.45;;
10991;SDS011;5549;47.028;15.514;2024-03-02T00:27:05;31.23;;;12.98;;
10991;SDS011;5549;47.028;15.514;2024-03-02T00:29:37;27.88;;;11.82;;
10991;SDS011;5549;47.028;15.514;2024-03-02T00:32:09;30.67;;;11.60;;
10991;SDS011;5549;47.028;15.514;2024-03-02T00:34:44;29.15;;;11.13;;
10991;SDS011;5549;47.028;15.514;2024-03-02T00:37:15;30.27;;;12.07;;
10991;SDS011;5549;47.028;15.514;2024-03-02T00:39:48;32.00;;;12.27;;
10991;SDS011;5549;47.028;15.514;2024-03-02T00:42:18;29.77;;;11.93;;
10991;SDS011;5549;47.028;15.514;2024-03-02T00:44:47;30.85;;;11.48;;
10991;SDS011;5549;47.028;15.514;2024-03-02T00:47:18;29.95;;;11.25;;
10991;SDS011;5549;47.028;15.514;2024-03-02T00:49:47;29.88;;;12.45;;
10991;SDS011;5549;47.028;15.514;2024-03-02T00:52:17;30.83;;;11.88;;
10991;SDS011;5549;47.028;15.514;2024-03-02T00:54:45;30.95;;;12.30;;
10991;SDS011;5549;47.028;15.514;2024-03-02T00:57:15;27.52;;;11.00;;
10991;SDS011;5549;47.028;15.514;2024-03-02T00:59:46;36.47;;;12.13;;
10991;SDS011;5549;47.028;15.514;2024-03-02T01:02:15;31.65;;;10.68;;
10991;SDS011;5549;47.028;15.514;2024-03-02T01:04:43;33.13;;;12.65;;
10991;SDS011;5549;47.028;15.514;2024-03-02T01:07:12;31.88;;;10.88;;
10991;SDS011;5549;47.028;15.514;2024-03-02T01:09:43;30.90;;;11.73;;
10991;SDS011;5549;47.028;15.514;2024-03-02T01:12:11;32.20;;;12.68;;
10991;SDS011;5549;47.028;15.514;2024-03-02T01:14:43;33.53;;;12.77;;
10991;SDS011;5549;47.028;15.514;2024-03-02T01:17:26;29.88;;;11.23;;
10991;SDS011;5549;47.028;15.514;2024-03-02T01:19:55;31.10;;;10.60;;
10991;SDS011;5549;47.028;15.514;2024-03-02T01:22:25;27.80;;;10.73;;
10991;SDS011;5549;47.028;15.514;2024-03-02T01:24:54;30.85;;;11.60;;
10991;SDS011;5549;47.028;15.514;2024-03-02T01:27:42;28.70;;;10.90;;
10991;SDS011;5549;47.028;15.514;2024-03-02T01:30:10;32.42;;;11.88;;
10991;SDS011;5549;47.028;15.514;2024-03-02T01:32:40;28.63;;;11.00;;
10991;SDS011;5549;47.028;15.514;2024-03-02T01:35:10;26.50;;;10.43;;
10991;SDS011;5549;47.028;15.514;2024-03-02T01:37:41;30.90;;;10.55;;
10991;SDS011;5549;47.028;15.514;2024-03-02T01:40:10;32.42;;;10.57;;
10991;SDS011;5549;47.028;15.514;2024-03-02T01:42:41;26.00;;;10.00;;
10991;SDS011;5549;47.028;15.514;2024-03-02T01:45:13;25.27;;;10.38;;
10991;SDS011;5549;47.028;15.514;2024-03-02T01:47:43;30.00;;;10.63;;
10991;SDS011;5549;47.028;15.514;2024-03-02T01:50:11;27.25;;;11.00;;
10991;SDS011;5549;47.028;15.514;2024-03-02T01:52:49;27.25;;;10.95;;
10991;SDS011;5549;47.028;15.514;2024-03-02T01:55:20;24.92;;;10.13;;
10991;SDS011;5549;47.028;15.514;2024-03-02T01:57:49;30.17;;;10.70;;
10991;SDS011;5549;47.028;15.514;2024-03-02T02:00:18;26.42;;;10.27;;
10991;SDS011;5549;47.028;15.514;2024-03-02T02:02:51;32.83;;;10.48;;
10991;SDS011;5549;47.028;15.514;2024-03-02T02:05:19;25.27;;;10.60;;
10991;SDS011;5549;47.028;15.514;2024-03-02T02:07:47;27.38;;;10.88;;
10991;SDS011;5549;47.028;15.514;2024-03-02T02:10:17;27.05;;;10.52;;
10991;SDS011;5549;47.028;15.514;2024-03-02T02:12:47;29.05;;;10.43;;
10991;SDS011;5549;47.028;15.514;2024-03-02T02:15:21;24.85;;;9.85;;
10991;SDS011;5549;47.028;15.514;2024-03-02T02:17:57;24.30;;;10.07;;
10991;SDS011;5549;47.028;15.514;2024-03-02T02:20:25;28.17;;;9.65;;
10991;SDS011;5549;47.028;15.514;2024-03-02T02:22:58;25.25;;;9.90;;
10991;SDS011;5549;47.028;15.514;2024-03-02T02:25:27;28.63;;;10.32;;
10991;SDS011;5549;47.028;15.514;2024-03-02T02:27:58;28.58;;;10.32;;
10991;SDS011;5549;47.028;15.514;2024-03-02T02:30:29;22.02;;;9.57;;
10991;SDS011;5549;47.028;15.514;2024-03-02T02:33:06;25.85;;;9.57;;
10991;SDS011;5549;47.028;15.514;2024-03-02T02:35:37;25.52;;;9.45;;
10991;SDS011;5549;47.028;15.514;2024-03-02T02:38:09;24.35;;;9.75;;
10991;SDS011;5549;47.028;15.514;2024-03-02T02:40:37;26.30;;;9.05;;
10991;SDS011;5549;47.028;15.514;2024-03-02T02:43:05;23.95;;;9.50;;
10991;SDS011;5549;47.028;15.514;2024-03-02T02:45:36;22.85;;;10.02;;
10991;SDS011;5549;47.028;15.514;2024-03-02T02:48:04;26.77;;;10.05;;
10991;SDS011;5549;47.028;15.514;2024-03-02T02:50:33;26.92;;;10.77;;
10991;SDS011;5549;47.028;15.514;2024-03-02T02:53:03;24.35;;;10.00;;
10991;SDS011;5549;47.028;15.514;2024-03-02T02:55:38;25.40;;;9.48;;
10991;SDS011;5549;47.028;15.514;2024-03-02T02:58:08;22.00;;;9.60;;
10991;SDS011;5549;47.028;15.514;2024-03-02T03:00:40;25.23;;;9.55;;
10991;SDS011;5549;47.028;15.514;2024-03-02T03:03:08;25.77;;;9.98;;
10991;SDS011;5549;47.028;15.514;2024-03-02T03:05:37;23.80;;;9.55;;
10991;SDS011;5549;47.028;15.514;2024-03-02T03:08:09;26.60;;;9.93;;
10991;SDS011;5549;47.028;15.514;2024-03-02T03:10:38;24.95;;;9.73;;
10991;SDS011;5549;47.028;15.514;2024-03-02T03:13:11;22.98;;;9.45;;
10991;SDS011;5549;47.028;15.514;2024-03-02T03:15:41;23.42;;;9.40;;
10991;SDS011;5549;47.028;15.514;2024-03-02T03:18:21;26.60;;;9.73;;
10991;SDS011;5549;47.028;15.514;2024-03-02T03:20:51;19.42;;;8.48;;
10991;SDS011;5549;47.028;15.514;2024-03-02T03:23:23;21.48;;;9.35;;
10991;SDS011;5549;47.028;15.514;2024-03-02T03:26:00;24.63;;;9.85;;
10991;SDS011;5549;47.028;15.514;2024-03-02T03:28:32;24.10;;;9.23;;
10991;SDS011;5549;47.028;15.514;2024-03-02T03:31:04;27.60;;;10.02;;
10991;SDS011;5549;47.028;15.514;2024-03-02T03:33:35;23.75;;;9.30;;
10991;SDS011;5549;47.028;15.514;2024-03-02T03:36:04;23.08;;;9.15;;
10991;SDS011;5549;47.028;15.514;2024-03-02T03:38:37;21.40;;;9.15;;
10991;SDS011;5549;47.028;15.514;2024-03-02T03:41:06;22.55;;;9.23;;
10991;SDS011;5549;47.028;15.514;2024-03-02T03:43:40;22.00;;;10.07;;
10991;SDS011;5549;47.028;15.514;2024-03-02T03:46:07;19.13;;;8.25;;
10991;SDS011;5549;47.028;15.514;2024-03-02T03:48:39;24.27;;;8.88;;
10991;SDS011;5549;47.028;15.514;2024-03-02T03:51:08;23.35;;;9.65;;
10991;SDS011;5549;47.028;15.514;2024-03-02T03:53:36;24.05;;;9.43;;
10991;SDS011;5549;47.028;15.514;2024-03-02T03:56:06;18.65;;;8.40;;
10991;SDS011;5549;47.028;15.514;2024-03-02T03:58:36;19.70;;;8.75;;
10991;SDS011;5549;47.028;15.514;2024-03-02T04:01:04;25.70;;;9.85;;
10991;SDS011;5549;47.028;15.514;2024-03-02T04:03:43;22.95;;;8.82;;
10991;SDS011;5549;47.028;15.514;2024-03-02T04:06:14;23.45;;;9.32;;
10991;SDS011;5549;47.028;15.514;2024-03-02T04:08:47;21.30;;;8.77;;
10991;SDS011;5549;47.028;15.514;2024-03-02T04:11:18;20.33;;;8.50;;
10991;SDS011;5549;47.028;15.514;2024-03-02T04:13:48;19.10;;;7.65;;
10991;SDS011;5549;47.028;15.514;2024-03-02T04:16:17;22.50;;;8.65;;
10991;SDS011;5549;47.028;15.514;2024-03-02T04:19:04;22.23;;;8.50;;
10991;SDS011;5549;47.028;15.514;2024-03-02T04:21:33;24.80;;;9.43;;
10991;SDS011;5549;47.028;15.514;2024-03-02T04:24:05;22.33;;;9.00;;
10991;SDS011;5549;47.028;15.514;2024-03-02T04:26:37;24.45;;;8.98;;
10991;SDS011;5549;47.028;15.514;2024-03-02T04:29:07;20.67;;;8.35;;
10991;SDS011;5549;47.028;15.514;2024-03-02T04:31:41;23.30;;;8.43;;
10991;SDS011;5549;47.028;15.514;2024-03-02T04:34:13;24.65;;;9.00;;
10991;SDS011;5549;47.028;15.514;2024-03-02T04:36:54;22.15;;;8.20;;
10991;SDS011;5549;47.028;15.514;2024-03-02T04:39:25;19.52;;;8.75;;
10991;SDS011;5549;47.028;15.514;2024-03-02T04:42:00;23.05;;;8.77;;
10991;SDS011;5549;47.028;15.514;2024-03-02T04:44:28;20.63;;;8.48;;
10991;SDS011;5549;47.028;15.514;2024-03-02T04:46:56;25.02;;;8.35;;
10991;SDS011;5549;47.028;15.514;2024-03-02T04:49:24;23.70;;;8.40;;
10991;SDS011;5549;47.028;15.514;2024-03-02T04:51:53;18.67;;;7.53;;
10991;SDS011;5549;47.028;15.514;2024-03-02T04:54:21;23.38;;;8.82;;
10991;SDS011;5549;47.028;15.514;2024-03-02T04:56:50;20.17;;;8.32;;
10991;SDS011;5549;47.028;15.514;2024-03-02T04:59:21;23.90;;;8.93;;
10991;SDS011;5549;47.028;15.514;2024-03-02T05:01:51;23.45;;;9.27;;
10991;SDS011;5549;47.028;15.514;2024-03-02T05:04:26;21.17;;;8.27;;
10991;SDS011;5549;47.028;15.514;2024-03-02T05:06:54;24.40;;;9.07;;
10991;SDS011;5549;47.028;15.514;2024-03-02T05:09:23;20.95;;;8.57;;
10991;SDS011;5549;47.028;15.514;2024-03-02T05:11:53;26.00;;;9.00;;
10991;SDS011;5549;47.028;15.514;2024-03-02T05:14:45;23.00;;;8.50;;
10991;SDS011;5549;47.028;15.514;2024-03-02T05:17:14;22.83;;;9.38;;
10991;SDS011;5549;47.028;15.514;2024-03-02T05:19:46;21.40;;;8.05;;
10991;SDS011;5549;47.028;15.514;2024-03-02T05:22:33;23.13;;;8.32;;
10991;SDS011;5549;47.028;15.514;2024-03-02T05:25:02;24.23;;;9.93;;
10991;SDS011;5549;47.028;15.514;2024-03-02T05:27:35;21.88;;;9.15;;
10991;SDS011;5549;47.028;15.514;2024-03-02T05:30:09;20.88;;;8.80;;
10991;SDS011;5549;47.028;15.514;2024-03-02T05:32:58;19.52;;;7.85;;
10991;SDS011;5549;47.028;15.514;2024-03-02T05:35:39;18.40;;;7.53;;
10991;SDS011;5549;47.028;15.514;2024-03-02T05:38:11;25.20;;;9.15;;
10991;SDS011;5549;47.028;15.514;2024-03-02T05:40:40;25.63;;;9.13;;
10991;SDS011;5549;47.028;15.514;2024-03-02T05:43:09;19.75;;;8.05;;
10991;SDS011;5549;47.028;15.514;2024-03-02T05:45:39;19.52;;;8.57;;
10991;SDS011;5549;47.028;15.514;2024-03-02T05:48:09;23.55;;;9.02;;
10991;SDS011;5549;47.028;15.514;2024-03-02T05:50:56;23.00;;;9.30;;
10991;SDS011;5549;47.028;15.514;2024-03-02T05:53:43;25.33;;;9.90;;
10991;SDS011;5549;47.028;15.514;2024-03-02T05:56:19;23.70;;;9.18;;
10991;SDS011;5549;47.028;15.514;2024-03-02T05:58:50;25.73;;;9.70;;
10991;SDS011;5549;47.028;15.514;2024-03-02T06:01:34;24.27;;;9.10;;
10991;SDS011;5549;47.028;15.514;2024-03-02T06:04:04;23.27;;;9.30;;
10991;SDS011;5549;47.028;15.514;2024-03-02T06:06:34;20.15;;;8.55;;
10991;SDS011;5549;47.028;15.514;2024-03-02T06:09:01;23.30;;;9.98;;
10991;SDS011;5549;47.028;15.514;2024-03-02T06:11:35;25.20;;;10.38;;
10991;SDS011;5549;47.028;15.514;2024-03-02T06:14:05;21.98;;;8.77;;
10991;SDS011;5549;47.028;15.514;2024-03-02T06:16:35;20.48;;;8.23;;
10991;SDS011;5549;47.028;15.514;2024-03-02T06:19:05;22.40;;;9.02;;
10991;SDS011;5549;47.028;15.514;2024-03-02T06:21:35;21.60;;;9.05;;
10991;SDS011;5549;47.028;15.514;2024-03-02T06:24:04;22.90;;;9.45;;
10991;SDS011;5549;47.028;15.514;2024-03-02T06:26:34;20.90;;;8.68;;
10991;SDS011;5549;47.028;15.514;2024-03-02T06:29:02;24.73;;;9.57;;
10991;SDS011;5549;47.028;15.514;2024-03-02T06:31:32;26.58;;;9.80;;
10991;SDS011;5549;47.028;15.514;2024-03-02T06:34:03;22.95;;;8.70;;
10991;SDS011;5549;47.028;15.514;2024-03-02T06:36:31;23.25;;;8.95;;
10991;SDS011;5549;47.028;15.514;2024-03-02T06:38:59;21.73;;;8.27;;
10991;SDS011;5549;47.028;15.514;2024-03-02T06:41:27;25.70;;;9.43;;
10991;SDS011;5549;47.028;15.514;2024-03-02T06:43:55;27.40;;;10.82;;
10991;SDS011;5549;47.028;15.514;2024-03-02T06:46:27;24.77;;;8.77;;
10991;SDS011;5549;47.028;15.514;2024-03-02T06:48:55;22.92;;;9.23;;
10991;SDS011;5549;47.028;15.514;2024-03-02T06:51:24;26.77;;;9.13;;
10991;SDS011;5549;47.028;15.514;2024-03-02T06:53:54;20.05;;;8.75;;
10991;SDS011;5549;47.028;15.514;2024-03-02T06:56:22;23.45;;;9.73;;
10991;SDS011;5549;47.028;15.514;2024-03-02T06:58:51;21.75;;;9.10;;
10991;SDS011;5549;47.028;15.514;2024-03-02T07:01:21;24.88;;;9.30;;
10991;SDS011;5549;47.028;15.514;2024-03-02T07:03:51;24.52;;;9.40;;
10991;SDS011;5549;47.028;15.514;2024-03-02T07:06:19;22.38;;;8.45;;
10991;SDS011;5549;47.028;15.514;2024-03-02T07:08:48;20.63;;;8.40;;
10991;SDS011;5549;47.028;15.514;2024-03-02T07:11:15;16.02;;;6.63;;
10991;SDS011;5549;47.028;15.514;2024-03-02T07:13:45;21.65;;;7.82;;
10991;SDS011;5549;47.028;15.514;2024-03-02T07:16:12;20.60;;;8.70;;
10991;SDS011;5549;47.028;15.514;2024-03-02T07:18:53;17.50;;;7.93;;
10991;SDS011;5549;47.028;15.514;2024-03-02T07:21:24;17.15;;;6.70;;
10991;SDS011;5549;47.028;15.514;2024-03-02T07:23:53;17.13;;;6.57;;
10991;SDS011;5549;47.028;15.514;2024-03-02T07:26:46;17.67;;;6.63;;
10991;SDS011;5549;47.028;15.514;2024-03-02T07:32:07;16.95;;;6.43;;
10991;SDS011;5549;47.028;15.514;2024-03-02T07:34:39;18.35;;;7.43;;
10991;SDS011;5549;47.028;15.514;2024-03-02T07:37:07;18.60;;;7.72;;
10991;SDS011;5549;47.028;15.514;2024-03-02T07:39:42;17.05;;;7.25;;
10991;SDS011;5549;47.028;15.514;2024-03-02T07:42:11;16.83;;;7.22;;
10991;SDS011;5549;47.028;15.514;2024-03-02T07:44:44;16.67;;;7.65;;
10991;SDS011;5549;47.028;15.514;2024-03-02T07:47:14;17.20;;;7.47;;
10991;SDS011;5549;47.028;15.514;2024-03-02T07:49:47;16.75;;;6.97;;
10991;SDS011;5549;47.028;15.514;2024-03-02T07:52:18;16.83;;;7.97;;
10991;SDS011;5549;47.028;15.514;2024-03-02T07:54:49;20.65;;;8.27;;
10991;SDS011;5549;47.028;15.514;2024-03-02T07:57:17;18.00;;;8.23;;
10991;SDS011;5549;47.028;15.514;2024-03-02T07:59:44;18.80;;;8.63;;
10991;SDS011;5549;47.028;15.514;2024-03-02T08:02:14;18.33;;;8.27;;
10991;SDS011;5549;47.028;15.514;2024-03-02T08:04:44;19.27;;;8.48;;
10991;SDS011;5549;47.028;15.514;2024-03-02T08:07:13;15.98;;;7.80;;
10991;SDS011;5549;47.028;15.514;2024-03-02T08:09:42;18.42;;;7.57;;
10991;SDS011;5549;47.028;15.514;2024-03-02T08:12:12;16.73;;;7.88;;
10991;SDS011;5549;47.028;15.514;2024-03-02T08:14:40;16.40;;;8.68;;
10991;SDS011;5549;47.028;15.514;2024-03-02T08:17:07;18.63;;;8.10;;
10991;SDS011;5549;47.028;15.514;2024-03-02T08:19:39;19.00;;;8.35;;
10991;SDS011;5549;47.028;15.514;2024-03-02T08:22:07;19.98;;;8.50;;
10991;SDS011;5549;47.028;15.514;2024-03-02T08:24:34;15.70;;;7.22;;
10991;SDS011;5549;47.028;15.514;2024-03-02T08:27:03;19.23;;;9.02;;
10991;SDS011;5549;47.028;15.514;2024-03-02T08:29:32;17.45;;;8.63;;
10991;SDS011;5549;47.028;15.514;2024-03-02T08:32:02;17.95;;;7.75;;
10991;SDS011;5549;47.028;15.514;2024-03-02T08:34:31;15.52;;;7.20;;
10991;SDS011;5549;47.028;15.514;2024-03-02T08:37:01;16.35;;;7.90;;
10991;SDS011;5549;47.028;15.514;2024-03-02T08:39:33;19.35;;;8.23;;
10991;SDS011;5549;47.028;15.514;2024-03-02T08:42:00;17.73;;;8.23;;
10991;SDS011;5549;47.028;15.514;2024-03-02T08:44:30;17.35;;;7.63;;
10991;SDS011;5549;47.028;15.514;2024-03-02T08:46:59;16.85;;;8.40;;
10991;SDS011;5549;47.028;15.514;2024-03-02T08:49:27;15.30;;;6.93;;
10991;SDS011;5549;47.028;15.514;2024-03-02T08:51:54;15.32;;;7.72;;
10991;SDS011;5549;47.028;15.514;2024-03-02T08:54:22;15.88;;;7.05;;
10991;SDS011;5549;47.028;15.514;2024-03-02T08:56:52;15.23;;;6.93;;
10991;SDS011;5549;47.028;15.514;2024-03-02T08:59:22;17.55;;;7.50;;
10991;SDS011;5549;47.028;15.514;2024-03-02T09:01:54;13.75;;;6.57;;
10991;SDS011;5549;47.028;15.514;2024-03-02T09:04:21;18.10;;;8.13;;
10991;SDS011;5549;47.028;15.514;2024-03-02T09:06:51;14.05;;;6.80;;
10991;SDS011;5549;47.028;15.514;2024-03-02T09:09:21;15.55;;;6.80;;
10991;SDS011;5549;47.028;15.514;2024-03-02T09:11:48;17.80;;;7.93;;
10991;SDS011;5549;47.028;15.514;2024-03-02T09:14:18;14.95;;;7.45;;
10991;SDS011;5549;47.028;15.514;2024-03-02T09:16:45;16.00;;;6.65;;
10991;SDS011;5549;47.028;15.514;2024-03-02T09:19:17;14.25;;;5.55;;
10991;SDS011;5549;47.028;15.514;2024-03-02T09:21:44;17.80;;;7.32;;
10991;SDS011;5549;47.028;15.514;2024-03-02T09:24:14;14.07;;;5.90;;
10991;SDS011;5549;47.028;15.514;2024-03-02T09:26:42;18.38;;;6.68;;
10991;SDS011;5549;47.028;15.514;2024-03-02T09:29:12;16.25;;;7.00;;
10991;SDS011;5549;47.028;15.514;2024-03-02T09:31:40;16.90;;;6.88;;
10991;SDS011;5549;47.028;15.514;2024-03-02T09:34:10;16.02;;;6.47;;
10991;SDS011;5549;47.028;15.514;2024-03-02T09:36:43;16.67;;;7.47;;
10991;SDS011;5549;47.028;15.514;2024-03-02T09:39:11;18.45;;;6.90;;
10991;SDS011;5549;47.028;15.514;2024-03-02T09:41:40;15.82;;;6.22;;
10991;SDS011;5549;47.028;15.514;2024-03-02T09:44:11;15.95;;;6.40;;
10991;SDS011;5549;47.028;15.514;2024-03-02T09:46:39;16.17;;;7.30;;
10991;SDS011;5549;47.028;15.514;2024-03-02T09:49:09;16.38;;;6.50;;
10991;SDS011;5549;47.028;15.514;2024-03-02T09:51:37;16.27;;;7.28;;
10991;SDS011;5549;47.028;15.514;2024-03-02T09:54:08;15.50;;;6.65;;
10991;SDS011;5549;47.028;15.514;2024-03-02T09:56:36;15.20;;;7.10;;
10991;SDS011;5549;47.028;15.514;2024-03-02T09:59:06;14.02;;;6.07;;
10991;SDS011;5549;47.028;15.514;2024-03-02T10:01:34;15.95;;;6.63;;
10991;SDS011;5549;47.028;15.514;2024-03-02T10:04:02;15.60;;;7.28;;
10991;SDS011;5549;47.028;15.514;2024-03-02T10:06:34;13.77;;;6.03;;
10991;SDS011;5549;47.028;15.514;2024-03-02T10:11:29;14.77;;;7.35;;
10991;SDS011;5549;47.028;15.514;2024-03-02T10:14:04;20.60;;;7.93;;
10991;SDS011;5549;47.028;15.514;2024-03-02T10:16:34;16.92;;;6.70;;
10991;SDS011;5549;47.028;15.514;2024-03-02T10:19:15;18.45;;;8.10;;
10991;SDS011;5549;47.028;15.514;2024-03-02T10:21:46;15.13;;;6.10;;
10991;SDS011;5549;47.028;15.514;2024-03-02T10:24:16;15.25;;;6.38;;
10991;SDS011;5549;47.028;15.514;2024-03-02T10:26:45;15.32;;;6.75;;
10991;SDS011;5549;47.028;15.514;2024-03-02T10:29:13;11.57;;;4.97;;
10991;SDS011;5549;47.028;15.514;2024-03-02T10:31:42;16.08;;;6.30;;
10991;SDS011;5549;47.028;15.514;2024-03-02T10:34:11;13.00;;;5.55;;
10991;SDS011;5549;47.028;15.514;2024-03-02T10:36:41;12.05;;;5.72;;
10991;SDS011;5549;47.028;15.514;2024-03-02T10:39:13;11.73;;;5.32;;
10991;SDS011;5549;47.028;15.514;2024-03-02T10:41:41;18.20;;;5.22;;
10991;SDS011;5549;47.028;15.514;2024-03-02T10:44:14;12.07;;;5.10;;
10991;SDS011;5549;47.028;15.514;2024-03-02T10:46:42;11.65;;;4.53;;
10991;SDS011;5549;47.028;15.514;2024-03-02T10:49:14;14.38;;;5.55;;
10991;SDS011;5549;47.028;15.514;2024-03-02T10:51:42;13.32;;;5.80;;
10991;SDS011;5549;47.028;15.514;2024-03-02T10:54:09;13.25;;;5.03;;
10991;SDS011;5549;47.028;15.514;2024-03-02T10:56:40;10.13;;;4.55;;
10991;SDS011;5549;47.028;15.514;2024-03-02T10:59:14;11.20;;;4.53;;
10991;SDS011;5549;47.028;15.514;2024-03-02T11:01:50;11.00;;;4.30;;
10991;SDS011;5549;47.028;15.514;2024-03-02T11:04:30;9.10;;;4.10;;
10991;SDS011;5549;47.028;15.514;2024-03-02T11:07:01;12.23;;;3.90;;
10991;SDS011;5549;47.028;15.514;2024-03-02T11:09:34;8.52;;;4.20;;
10991;SDS011;5549;47.028;15.514;2024-03-02T11:12:06;10.40;;;4.00;;
10991;SDS011;5549;47.028;15.514;2024-03-02T11:14:49;11.95;;;3.33;;
10991;SDS011;5549;47.028;15.514;2024-03-02T11:17:18;9.38;;;3.90;;
10991;SDS011;5549;47.028;15.514;2024-03-02T11:19:46;7.60;;;3.40;;
10991;SDS011;5549;47.028;15.514;2024-03-02T11:22:17;8.27;;;3.53;;
10991;SDS011;5549;47.028;15.514;2024-03-02T11:24:48;8.48;;;3.92;;
10991;SDS011;5549;47.028;15.514;2024-03-02T11:30:50;7.60;;;3.15;;
10991;SDS011;5549;47.028;15.514;2024-03-02T11:33:25;8.82;;;2.90;;
10991;SDS011;5549;47.028;15.514;2024-03-02T11:35:59;7.00;;;2.75;;
10991;SDS011;5549;47.028;15.514;2024-03-02T11:38:30;9.05;;;3.15;;
10991;SDS011;5549;47.028;15.514;2024-03-02T11:40:59;6.18;;;2.88;;
10991;SDS011;5549;47.028;15.514;2024-03-02T11:43:31;9.50;;;3.38;;
10991;SDS011;5549;47.028;15.514;2024-03-02T11:46:00;8.15;;;3.10;;
10991;SDS011;5549;47.028;15.514;2024-03-02T11:48:35;6.03;;;2.63;;
10991;SDS011;5549;47.028;15.514;2024-03-02T11:51:05;5.82;;;1.95;;
10991;SDS011;5549;47.028;15.514;2024-03-02T11:53:36;7.53;;;3.75;;
10991;SDS011;5549;47.028;15.514;2024-03-02T11:56:06;8.23;;;3.28;;
10991;SDS011;5549;47.028;15.514;2024-03-02T11:58:37;10.07;;;3.17;;
10991;SDS011;5549;47.028;15.514;2024-03-02T12:01:10;7.65;;;3.03;;
10991;SDS011;5549;47.028;15.514;2024-03-02T12:03:38;6.90;;;3.45;;
10991;SDS011;5549;47.028;15.514;2024-03-02T12:06:09;7.65;;;3.30;;
10991;SDS011;5549;47.028;15.514;2024-03-02T12:08:38;8.55;;;3.17;;
10991;SDS011;5549;47.028;15.514;2024-03-02T12:11:31;7.55;;;3.17;;
10991;SDS011;5549;47.028;15.514;2024-03-02T12:13:59;7.22;;;2.60;;
10991;SDS011;5549;47.028;15.514;2024-03-02T12:16:27;8.75;;;2.92;;
10991;SDS011;5549;47.028;15.514;2024-03-02T12:18:56;6.60;;;3.28;;
10991;SDS011;5549;47.028;15.514;2024-03-02T12:21:28;6.72;;;2.70;;
10991;SDS011;5549;47.028;15.514;2024-03-02T12:23:55;7.18;;;2.38;;
10991;SDS011;5549;47.028;15.514;2024-03-02T12:26:23;5.95;;;2.58;;
10991;SDS011;5549;47.028;15.514;2024-03-02T12:28:51;5.50;;;2.67;;
10991;SDS011;5549;47.028;15.514;2024-03-02T12:31:21;6.93;;;2.42;;
10991;SDS011;5549;47.028;15.514;2024-03-02T12:33:52;6.05;;;2.25;;
10991;SDS011;5549;47.028;15.514;2024-03-02T12:36:24;7.30;;;2.80;;
10991;SDS011;5549;47.028;15.514;2024-03-02T12:38:54;7.93;;;2.95;;
10991;SDS011;5549;47.028;15.514;2024-03-02T12:41:22;7.18;;;2.80;;
10991;SDS011;5549;47.028;15.514;2024-03-02T12:43:50;5.97;;;2.67;;
10991;SDS011;5549;47.028;15.514;2024-03-02T12:46:17;7.22;;;2.70;;
10991;SDS011;5549;47.028;15.514;2024-03-02T12:48:45;6.40;;;2.55;;
10991;SDS011;5549;47.028;15.514;2024-03-02T12:51:16;3.70;;;1.80;;
10991;SDS011;5549;47.028;15.514;2024-03-02T12:53:52;8.13;;;3.00;;
10991;SDS011;5549;47.028;15.514;2024-03-02T12:56:20;6.47;;;2.15;;
10991;SDS011;5549;47.028;15.514;2024-03-02T12:58:52;6.63;;;3.22;;
10991;SDS011;5549;47.028;15.514;2024-03-02T13:01:20;6.18;;;2.83;;
10991;SDS011;5549;47.028;15.514;2024-03-02T13:03:50;6.53;;;2.80;;
10991;SDS011;5549;47.028;15.514;2024-03-02T13:06:21;6.32;;;2.95;;
10991;SDS011;5549;47.028;15.514;2024-03-02T13:08:49;4.80;;;2.15;;
10991;SDS011;5549;47.028;15.514;2024-03-02T13:11:17;6.55;;;2.47;;
10991;SDS011;5549;47.028;15.514;2024-03-02T13:13:47;5.40;;;2.30;;
10991;SDS011;5549;47.028;15.514;2024-03-02T13:16:18;6.03;;;2.33;;
10991;SDS011;5549;47.028;15.514;2024-03-02T13:18:48;6.35;;;2.42;;
10991;SDS011;5549;47.028;15.514;2024-03-02T13:21:16;5.75;;;2.88;;
10991;SDS011;5549;47.028;15.514;2024-03-02T13:23:47;5.15;;;2.22;;
10991;SDS011;5549;47.028;15.514;2024-03-02T13:26:17;4.93;;;1.95;;
10991;SDS011;5549;47.028;15.514;2024-03-02T13:28:44;6.78;;;2.00;;
10991;SDS011;5549;47.028;15.514;2024-03-02T13:31:12;4.75;;;1.95;;
10991;SDS011;5549;47.028;15.514;2024-03-02T13:33:42;12.10;;;2.78;;
10991;SDS011;5549;47.028;15.514;2024-03-02T13:36:11;4.78;;;2.10;;
10991;SDS011;5549;47.028;15.514;2024-03-02T13:38:41;6.07;;;2.30;;
10991;SDS011;5549;47.028;15.514;2024-03-02T13:41:10;5.53;;;2.20;;
10991;SDS011;5549;47.028;15.514;2024-03-02T13:43:38;6.95;;;2.50;;
10991;SDS011;5549;47.028;15.514;2024-03-02T13:46:06;8.10;;;3.13;;
10991;SDS011;5549;47.028;15.514;2024-03-02T13:48:37;6.07;;;3.00;;
10991;SDS011;5549;47.028;15.514;2024-03-02T13:51:05;6.35;;;2.50;;
10991;SDS011;5549;47.028;15.514;2024-03-02T13:53:35;4.85;;;2.55;;
10991;SDS011;5549;47.028;15.514;2024-03-02T13:56:05;6.20;;;2.78;;
10991;SDS011;5549;47.028;15.514;2024-03-02T13:58:34;8.30;;;2.80;;
10991;SDS011;5549;47.028;15.514;2024-03-02T14:01:02;5.30;;;2.05;;
10991;SDS011;5549;47.028;15.514;2024-03-02T14:03:31;5.70;;;1.95;;
10991;SDS011;5549;47.028;15.514;2024-03-02T14:05:58;7.55;;;2.85;;
10991;SDS011;5549;47.028;15.514;2024-03-02T14:08:26;5.50;;;2.00;;
10991;SDS011;5549;47.028;15.514;2024-03-02T14:10:56;6.45;;;3.20;;
10991;SDS011;5549;47.028;15.514;2024-03-02T14:13:28;8.40;;;3.72;;
10991;SDS011;5549;47.028;15.514;2024-03-02T14:15:59;9.55;;;4.10;;
10991;SDS011;5549;47.028;15.514;2024-03-02T14:21:00;7.63;;;3.70;;
10991;SDS011;5549;47.028;15.514;2024-03-02T14:23:29;7.75;;;3.97;;
10991;SDS011;5549;47.028;15.514;2024-03-02T14:25:57;9.30;;;4.00;;
10991;SDS011;5549;47.028;15.514;2024-03-02T14:28:25;9.82;;;3.88;;
10991;SDS011;5549;47.028;15.514;2024-03-02T14:30:53;7.90;;;3.00;;
10991;SDS011;5549;47.028;15.514;2024-03-02T14:33:24;8.88;;;4.10;;
10991;SDS011;5549;47.028;15.514;2024-03-02T14:35:54;10.02;;;3.83;;
10991;SDS011;5549;47.028;15.514;2024-03-02T14:38:21;9.88;;;3.47;;
10991;SDS011;5549;47.028;15.514;2024-03-02T14:40:49;9.05;;;2.88;;
10991;SDS011;5549;47.028;15.514;2024-03-02T14:43:17;10.43;;;3.80;;
10991;SDS011;5549;47.028;15.514;2024-03-02T14:45:47;7.65;;;3.72;;
10991;SDS011;5549;47.028;15.514;2024-03-02T14:48:14;8.90;;;3.70;;
10991;SDS011;5549;47.028;15.514;2024-03-02T14:50:45;6.85;;;2.90;;
10991;SDS011;5549;47.028;15.514;2024-03-02T14:53:16;9.20;;;3.30;;
10991;SDS011;5549;47.028;15.514;2024-03-02T14:55:43;9.90;;;4.18;;
10991;SDS011;5549;47.028;15.514;2024-03-02T14:58:11;7.25;;;3.38;;
10991;SDS011;5549;47.028;15.514;2024-03-02T15:00:41;7.95;;;3.58;;
10991;SDS011;5549;47.028;15.514;2024-03-02T15:03:11;8.32;;;4.22;;
10991;SDS011;5549;47.028;15.514;2024-03-02T15:05:39;9.25;;;4.32;;
10991;SDS011;5549;47.028;15.514;2024-03-02T15:08:08;11.10;;;4.15;;